Time;durP1;ratioP1;P1;durP2;ratioP2;P2;SDS_P1;SDS_P2;PMS_P1;PMS_P2;Temp;Humidity;BMP_temperature;BMP_pressure;BME280_temperature;BME280_humidity;BME280_pressure;Samples;Min_cycle;Max_cycle;Signal;HPM_P1;HPM_P2
2021/12/11 00:01:51;;;;;;;23.30;13.65;;;0.80;99.90;;;;;;5093445;28;20349;-68
2021/12/11 00:04:22;;;;;;;20.63;13.02;;;0.80;99.90;;;;;;5094484;28;20040;-66
2021/12/11 00:06:52;;;;;;;20.98;13.35;;;0.90;99.90;;;;;;5094197;28;20032;-66
2021/12/11 00:09:47;;;;;;;20.02;13.05;;;0.90;99.90;;;;;;5094715;28;20039;-68
2021/12/11 00:12:27;;;;;;;20.95;13.88;;;1.00;99.90;;;;;;5089573;28;20496;-68
2021/12/11 00:15:03;;;;;;;22.95;13.52;;;1.00;99.90;;;;;;5094096;28;20118;-68
2021/12/11 00:17:32;;;;;;;20.10;13.77;;;1.00;99.90;;;;;;5093845;28;20038;-68
2021/12/11 00:19:58;;;;;;;21.35;13.60;;;0.90;99.90;;;;;;5093510;28;20056;-69
2021/12/11 00:22:27;;;;;;;23.02;14.40;;;0.90;99.90;;;;;;5093679;28;20476;-68
2021/12/11 00:25:09;;;;;;;21.65;13.80;;;0.90;99.90;;;;;;5093224;28;20044;-68
2021/12/11 00:27:38;;;;;;;23.38;12.98;;;0.90;99.90;;;;;;5093841;28;20036;-69
2021/12/11 00:30:08;;;;;;;21.10;12.90;;;0.80;99.90;;;;;;5093958;28;20039;-70
2021/12/11 00:32:34;;;;;;;19.88;13.07;;;0.80;99.90;;;;;;5092931;28;20040;-71
2021/12/11 00:35:09;;;;;;;19.20;13.30;;;0.80;99.90;;;;;;5091811;28;20123;-71
2021/12/11 00:37:35;;;;;;;20.60;12.77;;;0.80;99.90;;;;;;5075425;28;20431;-69
2021/12/11 00:40:10;;;;;;;18.10;12.40;;;0.70;99.90;;;;;;5073383;28;20101;-69
2021/12/11 00:42:36;;;;;;;22.85;12.57;;;0.80;99.90;;;;;;5073177;28;20097;-69
2021/12/11 00:45:19;;;;;;;21.63;12.38;;;0.70;99.90;;;;;;5088149;28;20070;-68
2021/12/11 00:48:06;;;;;;;18.67;12.18;;;0.60;99.90;;;;;;5093549;28;20036;-69
2021/12/11 00:50:43;;;;;;;22.20;14.23;;;0.60;99.90;;;;;;5093801;28;20048;-69
2021/12/11 00:53:37;;;;;;;20.40;13.30;;;0.70;99.90;;;;;;5093499;28;20068;-69
2021/12/11 00:56:11;;;;;;;22.47;13.53;;;0.60;99.90;;;;;;5089570;28;20052;-68
2021/12/11 00:58:38;;;;;;;20.02;11.95;;;0.50;99.90;;;;;;5093347;28;20415;-72
2021/12/11 01:01:07;;;;;;;21.25;13.32;;;0.50;99.90;;;;;;5092847;28;20380;-71
2021/12/11 01:03:51;;;;;;;20.90;13.32;;;0.50;99.90;;;;;;5093323;28;20418;-68
2021/12/11 01:06:23;;;;;;;23.30;13.18;;;0.50;99.90;;;;;;5093415;28;20503;-72
2021/12/11 01:09:00;;;;;;;19.27;12.52;;;0.40;99.90;;;;;;5093156;28;20382;-68
2021/12/11 01:11:34;;;;;;;19.70;13.02;;;0.50;99.90;;;;;;5093223;28;20040;-68
2021/12/11 01:14:13;;;;;;;18.98;12.63;;;0.50;99.90;;;;;;5093637;28;20039;-69
2021/12/11 01:16:40;;;;;;;23.27;13.40;;;0.60;99.90;;;;;;5093060;28;20074;-69
2021/12/11 01:19:07;;;;;;;22.20;13.15;;;0.60;99.90;;;;;;5093128;28;20496;-69
2021/12/11 01:24:13;;;;;;;20.48;13.95;;;0.50;99.90;;;;;;5093197;28;20040;-69
2021/12/11 01:26:48;;;;;;;21.42;13.98;;;0.50;99.90;;;;;;5093147;28;20043;-70
2021/12/11 01:29:14;;;;;;;22.60;14.60;;;0.50;99.90;;;;;;5093502;28;20044;-69
2021/12/11 01:31:41;;;;;;;25.00;15.05;;;0.50;99.90;;;;;;5092949;28;20368;-70
2021/12/11 01:34:07;;;;;;;22.48;14.07;;;0.60;99.90;;;;;;5093362;28;20097;-69
2021/12/11 01:36:34;;;;;;;21.98;14.02;;;0.60;99.90;;;;;;5096121;28;20490;-69
2021/12/11 01:39:03;;;;;;;24.17;15.60;;;0.60;99.90;;;;;;5096750;28;20036;-68
2021/12/11 01:41:29;;;;;;;20.90;14.18;;;0.60;99.90;;;;;;5096678;28;20048;-69
2021/12/11 01:43:59;;;;;;;19.38;13.52;;;0.60;99.90;;;;;;5095995;28;20121;-69
2021/12/11 01:46:26;;;;;;;21.50;13.80;;;0.60;99.90;;;;;;5096568;28;20051;-71
2021/12/11 01:49:00;;;;;;;22.15;14.27;;;0.50;99.90;;;;;;5096855;28;20032;-69
2021/12/11 01:51:46;;;;;;;21.88;13.45;;;0.50;99.90;;;;;;5096684;28;20358;-69
2021/12/11 01:54:35;;;;;;;22.05;14.13;;;0.50;99.90;;;;;;5096594;28;20039;-69
2021/12/11 01:57:08;;;;;;;22.10;13.90;;;0.50;99.90;;;;;;5096395;28;20036;-69
2021/12/11 01:59:38;;;;;;;22.83;13.88;;;0.50;99.90;;;;;;5096604;28;20036;-70
2021/12/11 02:02:22;;;;;;;20.40;13.52;;;0.40;99.90;;;;;;5096381;28;20040;-71
2021/12/11 02:04:50;;;;;;;20.45;13.63;;;0.40;99.90;;;;;;5096826;28;20051;-70
2021/12/11 02:07:22;;;;;;;22.38;13.57;;;0.30;99.90;;;;;;5096560;28;20175;-69
2021/12/11 02:09:56;;;;;;;21.35;13.77;;;0.30;99.90;;;;;;5095698;28;20468;-70
2021/12/11 02:12:33;;;;;;;22.48;13.45;;;0.30;99.90;;;;;;5094981;28;20346;-68
2021/12/11 02:15:01;;;;;;;22.30;12.98;;;0.20;99.90;;;;;;5096425;28;20105;-70
2021/12/11 02:17:33;;;;;;;19.33;12.20;;;0.30;99.90;;;;;;5095974;28;20082;-71
2021/12/11 02:20:01;;;;;;;22.58;13.52;;;0.20;99.90;;;;;;5096002;28;20058;-69
2021/12/11 02:22:32;;;;;;;21.65;13.27;;;0.20;99.90;;;;;;5096001;28;20093;-69
2021/12/11 02:25:03;;;;;;;17.88;12.32;;;0.20;99.90;;;;;;5096165;28;20044;-72
2021/12/11 02:27:40;;;;;;;18.98;13.05;;;0.20;99.90;;;;;;5096126;28;20050;-69
2021/12/11 02:30:21;;;;;;;19.23;12.73;;;0.20;99.90;;;;;;5096277;28;20418;-69
2021/12/11 02:32:49;;;;;;;23.42;13.25;;;0.10;99.90;;;;;;5095568;28;20054;-68
2021/12/11 02:35:54;;;;;;;21.88;13.43;;;0.00;99.90;;;;;;5095958;28;20124;-69
2021/12/11 02:38:50;;;;;;;19.52;12.85;;;-0.10;99.90;;;;;;5083418;28;20115;-69
2021/12/11 02:41:28;;;;;;;20.20;14.27;;;-0.10;99.90;;;;;;5095447;28;20040;-68
2021/12/11 02:44:00;;;;;;;19.13;13.95;;;-0.10;99.90;;;;;;5095889;28;20388;-68
2021/12/11 02:47:00;;;;;;;26.35;14.35;;;-0.10;99.90;;;;;;5094838;28;20417;-68
2021/12/11 02:49:39;;;;;;;19.95;13.15;;;-0.10;99.90;;;;;;5072982;28;20056;-68
2021/12/11 02:52:17;;;;;;;22.05;13.73;;;-0.10;99.90;;;;;;5075153;28;20111;-68
2021/12/11 02:55:06;;;;;;;22.88;13.77;;;-0.10;99.90;;;;;;5075729;28;20075;-68
2021/12/11 02:57:37;;;;;;;21.00;13.38;;;-0.10;99.90;;;;;;5083330;28;20039;-68
2021/12/11 03:00:18;;;;;;;18.25;12.50;;;-0.10;99.90;;;;;;5095632;28;20051;-68
2021/12/11 03:02:49;;;;;;;21.30;13.20;;;-0.10;99.90;;;;;;5095102;28;20122;-68
2021/12/11 03:05:23;;;;;;;19.55;13.55;;;-0.20;99.90;;;;;;5095453;28;20031;-68
2021/12/11 03:07:52;;;;;;;18.70;12.50;;;-0.20;99.90;;;;;;5095301;28;20040;-69
2021/12/11 03:10:24;;;;;;;22.20;13.02;;;-0.20;99.90;;;;;;5095157;28;20465;-72
2021/12/11 03:12:53;;;;;;;19.27;12.75;;;-0.30;99.90;;;;;;5094939;28;20044;-69
2021/12/11 03:15:19;;;;;;;17.42;12.43;;;-0.10;99.90;;;;;;5095357;28;20101;-71
2021/12/11 03:17:45;;;;;;;21.60;12.68;;;-0.20;99.90;;;;;;5094906;28;20036;-68
2021/12/11 03:20:14;;;;;;;21.05;13.23;;;-0.20;99.90;;;;;;5094911;28;20140;-69
2021/12/11 03:22:43;;;;;;;24.25;13.48;;;-0.20;99.90;;;;;;5094235;28;20469;-70
2021/12/11 03:25:12;;;;;;;21.50;13.63;;;-0.30;99.90;;;;;;5094854;28;20083;-72
2021/12/11 03:27:38;;;;;;;21.27;13.43;;;-0.30;99.90;;;;;;5094921;28;20393;-68
2021/12/11 03:30:06;;;;;;;20.92;12.88;;;-0.20;99.90;;;;;;5094812;28;20043;-70
2021/12/11 03:32:32;;;;;;;22.92;13.40;;;-0.30;99.90;;;;;;5094460;28;20047;-69
2021/12/11 03:34:58;;;;;;;18.85;12.38;;;-0.40;99.90;;;;;;5094987;28;20416;-69
2021/12/11 03:37:23;;;;;;;18.45;11.65;;;-0.40;99.90;;;;;;5094776;28;20433;-68
2021/12/11 03:39:51;;;;;;;17.52;11.95;;;-0.40;99.90;;;;;;5093613;28;20058;-70
2021/12/11 03:42:22;;;;;;;20.58;13.27;;;-0.40;99.90;;;;;;5094508;28;20369;-68
2021/12/11 03:44:48;;;;;;;19.30;13.23;;;-0.40;99.90;;;;;;5094705;28;20094;-70
2021/12/11 03:47:18;;;;;;;21.33;13.40;;;-0.30;99.90;;;;;;5094513;28;20128;-68
2021/12/11 03:49:44;;;;;;;23.52;14.40;;;-0.30;99.90;;;;;;5093383;28;20185;-68
2021/12/11 03:52:11;;;;;;;21.90;13.60;;;-0.30;99.90;;;;;;5094129;28;20040;-68
2021/12/11 03:54:41;;;;;;;22.40;13.73;;;-0.40;99.90;;;;;;5094181;28;20434;-70
2021/12/11 03:57:09;;;;;;;21.95;13.55;;;-0.40;99.90;;;;;;5093182;28;20519;-68
2021/12/11 03:59:35;;;;;;;19.98;12.38;;;-0.40;99.90;;;;;;5094221;28;20036;-68
2021/12/11 04:02:06;;;;;;;19.83;13.30;;;-0.50;99.90;;;;;;5094057;28;20105;-68
2021/12/11 04:04:38;;;;;;;19.08;12.85;;;-0.60;99.90;;;;;;5093429;28;20111;-68
2021/12/11 04:07:08;;;;;;;22.25;13.88;;;-0.70;99.90;;;;;;5094181;28;20024;-68
2021/12/11 04:09:34;;;;;;;17.35;12.23;;;-0.70;99.90;;;;;;5094324;28;20131;-68
2021/12/11 04:12:01;;;;;;;19.35;11.13;;;-0.80;99.90;;;;;;5093697;28;20522;-69
2021/12/11 04:14:31;;;;;;;66.35;12.65;;;-0.80;99.90;;;;;;5094160;28;20042;-68
2021/12/11 04:16:58;;;;;;;53.88;11.07;;;-0.80;99.90;;;;;;5093739;28;20040;-68
2021/12/11 04:19:25;;;;;;;59.03;12.15;;;-0.80;99.90;;;;;;5092755;28;20416;-67
2021/12/11 04:21:51;;;;;;;66.10;11.52;;;-0.80;99.90;;;;;;5093788;28;20040;-69
2021/12/11 04:24:21;;;;;;;61.47;10.68;;;-0.80;99.90;;;;;;5094213;28;20035;-69
2021/12/11 04:26:49;;;;;;;59.03;11.68;;;-0.90;99.90;;;;;;5093975;28;20113;-69
2021/12/11 04:29:15;;;;;;;25.48;10.93;;;-1.00;99.90;;;;;;5093852;28;20123;-67
2021/12/11 04:31:43;;;;;;;25.02;10.88;;;-0.90;99.90;;;;;;5093603;28;20044;-67
2021/12/11 04:34:13;;;;;;;46.83;11.90;;;-0.90;99.90;;;;;;5094052;28;20369;-69
2021/12/11 04:36:56;;;;;;;24.60;11.23;;;-1.00;99.90;;;;;;5092777;28;20091;-67
2021/12/11 04:39:23;;;;;;;21.67;11.52;;;-1.00;99.90;;;;;;5093745;28;20350;-68
2021/12/11 04:42:03;;;;;;;20.48;11.65;;;-1.00;99.90;;;;;;5093549;28;20044;-68
2021/12/11 04:44:36;;;;;;;15.75;10.15;;;-0.90;99.90;;;;;;5093530;28;20063;-68
2021/12/11 04:47:07;;;;;;;14.75;10.13;;;-0.90;99.90;;;;;;5092159;28;20115;-72
2021/12/11 04:49:40;;;;;;;15.88;10.82;;;-0.90;99.90;;;;;;5093508;28;20395;-69
2021/12/11 04:52:32;;;;;;;20.00;11.48;;;-0.90;99.90;;;;;;5092293;28;20040;-68
2021/12/11 04:55:35;;;;;;;16.92;11.55;;;-0.80;99.90;;;;;;5092815;28;20040;-68
2021/12/11 05:00:30;;;;;;;18.38;12.23;;;-0.70;99.90;;;;;;5093260;28;20043;-68
2021/12/11 05:13:18;;;;;;;19.65;13.93;;;-0.60;99.90;;;;;;5097856;28;20052;-69
2021/12/11 05:15:48;;;;;;;20.25;13.00;;;-0.60;99.90;;;;;;5097520;28;20087;-68
2021/12/11 05:18:19;;;;;;;18.70;13.35;;;-0.50;99.90;;;;;;5097283;28;20044;-68
2021/12/11 05:20:48;;;;;;;22.00;13.90;;;-0.50;99.90;;;;;;5096725;28;20443;-68
2021/12/11 05:23:16;;;;;;;23.08;14.52;;;-0.50;99.90;;;;;;5097480;28;20115;-68
2021/12/11 05:25:43;;;;;;;19.05;13.05;;;-0.60;99.90;;;;;;5096977;28;20118;-68
2021/12/11 05:28:09;;;;;;;20.10;13.70;;;-0.60;99.90;;;;;;5097151;28;20036;-68
2021/12/11 05:30:40;;;;;;;21.75;13.48;;;-0.70;99.90;;;;;;5096275;28;20415;-68
2021/12/11 05:33:06;;;;;;;21.33;13.32;;;-0.80;99.90;;;;;;5097099;28;20043;-68
2021/12/11 05:35:35;;;;;;;20.85;13.15;;;-0.80;99.90;;;;;;5097324;28;20044;-68
2021/12/11 05:38:01;;;;;;;18.63;13.40;;;-0.90;99.90;;;;;;5096854;28;20355;-70
2021/12/11 05:40:29;;;;;;;19.63;12.60;;;-0.80;99.90;;;;;;5095400;28;20126;-68
2021/12/11 05:42:55;;;;;;;20.02;12.15;;;-0.90;99.90;;;;;;5096967;28;20442;-68
2021/12/11 05:45:21;;;;;;;18.80;12.70;;;-0.90;99.90;;;;;;5096974;28;20032;-70
2021/12/11 05:47:48;;;;;;;18.60;12.98;;;-0.90;99.90;;;;;;5096620;28;20131;-71
2021/12/11 05:50:20;;;;;;;18.58;12.52;;;-0.90;99.90;;;;;;5097021;28;20070;-68
2021/12/11 05:52:48;;;;;;;18.70;12.43;;;-0.90;99.90;;;;;;5096875;28;20075;-69
2021/12/11 05:55:17;;;;;;;19.35;13.63;;;-1.00;99.90;;;;;;5078798;28;20051;-68
2021/12/11 05:57:50;;;;;;;21.63;13.57;;;-0.90;99.90;;;;;;5077283;28;20040;-68
2021/12/11 06:00:17;;;;;;;22.60;14.52;;;-0.80;99.90;;;;;;5075749;28;20041;-69
2021/12/11 06:02:43;;;;;;;21.08;14.85;;;-0.80;99.90;;;;;;5075461;28;20358;-67
2021/12/11 06:05:09;;;;;;;25.85;15.95;;;-0.90;99.90;;;;;;5075709;28;20163;-69
2021/12/11 06:07:37;;;;;;;22.33;15.25;;;-0.80;99.90;;;;;;5076849;28;20456;-69
2021/12/11 06:10:11;;;;;;;24.55;16.77;;;-0.80;99.90;;;;;;5075716;28;20062;-68
2021/12/11 06:12:37;;;;;;;25.88;17.35;;;-0.80;99.90;;;;;;5075775;28;20390;-68
2021/12/11 06:15:04;;;;;;;23.70;15.88;;;-0.80;99.90;;;;;;5075723;28;20028;-68
2021/12/11 06:17:31;;;;;;;21.60;14.65;;;-0.80;99.90;;;;;;5077668;28;20040;-68
2021/12/11 06:19:58;;;;;;;22.17;14.52;;;-0.80;99.90;;;;;;5074874;28;20469;-68
2021/12/11 06:22:27;;;;;;;21.05;14.27;;;-0.70;99.90;;;;;;5073703;28;20466;-71
2021/12/11 06:24:55;;;;;;;27.35;15.90;;;-0.70;99.90;;;;;;5075529;28;20040;-68
2021/12/11 06:27:22;;;;;;;25.15;16.77;;;-0.60;99.90;;;;;;5079032;28;20059;-69
2021/12/11 06:29:48;;;;;;;23.75;16.17;;;-0.70;99.90;;;;;;5075409;28;20050;-68
2021/12/11 06:32:14;;;;;;;24.05;15.40;;;-0.70;99.90;;;;;;5075029;28;20037;-68
2021/12/11 06:34:40;;;;;;;22.52;15.82;;;-0.70;99.90;;;;;;5075373;28;20047;-70
2021/12/11 06:37:08;;;;;;;22.00;14.57;;;-0.80;99.90;;;;;;5077528;28;20028;-68
2021/12/11 06:39:34;;;;;;;24.17;15.02;;;-0.80;99.90;;;;;;5075105;28;20045;-73
2021/12/11 06:42:02;;;;;;;21.95;14.55;;;-0.70;99.90;;;;;;5074564;28;20345;-73
2021/12/11 06:44:28;;;;;;;23.27;15.55;;;-0.70;99.90;;;;;;5077737;28;20029;-68
2021/12/11 06:47:03;;;;;;;22.60;15.10;;;-0.70;99.90;;;;;;5077045;28;20373;-70
2021/12/11 06:49:31;;;;;;;23.85;15.00;;;-0.60;99.90;;;;;;5075064;28;20037;-69
2021/12/11 06:51:57;;;;;;;24.70;14.73;;;-0.70;99.90;;;;;;5074518;28;20036;-72
2021/12/11 06:54:25;;;;;;;25.33;15.10;;;-0.60;99.90;;;;;;5074689;28;20457;-73
2021/12/11 06:56:52;;;;;;;24.60;16.30;;;-0.50;99.90;;;;;;5075646;28;20335;-68
2021/12/11 06:59:18;;;;;;;25.42;15.48;;;-0.40;99.90;;;;;;5095364;28;20602;-68
2021/12/11 07:01:44;;;;;;;23.50;15.45;;;-0.50;99.90;;;;;;5094898;28;20032;-71
2021/12/11 07:04:11;;;;;;;24.52;15.63;;;-0.30;99.90;;;;;;5087418;28;20028;-68
2021/12/11 07:06:44;;;;;;;23.88;14.52;;;-0.20;99.90;;;;;;5074813;28;20040;-70
2021/12/11 07:09:11;;;;;;;21.58;14.32;;;-0.30;99.90;;;;;;5095450;28;20055;-69
2021/12/11 07:11:42;;;;;;;25.55;15.57;;;-0.30;99.90;;;;;;5094820;28;20060;-69
2021/12/11 07:14:09;;;;;;;23.73;15.88;;;-0.40;99.90;;;;;;5094985;28;20559;-69
2021/12/11 07:16:35;;;;;;;22.80;15.27;;;-0.60;99.90;;;;;;5093822;28;20051;-70
2021/12/11 07:19:03;;;;;;;24.00;16.67;;;-0.60;99.90;;;;;;5089792;28;20028;-68
2021/12/11 07:21:29;;;;;;;26.13;16.17;;;-0.70;99.90;;;;;;5073632;28;20048;-70
2021/12/11 07:23:55;;;;;;;30.08;17.10;;;-0.80;99.90;;;;;;5074371;28;20375;-68
2021/12/11 07:26:32;;;;;;;25.38;16.48;;;-0.80;99.90;;;;;;5074262;28;20464;-69
2021/12/11 07:29:04;;;;;;;26.60;16.83;;;-0.90;99.90;;;;;;5076857;28;20036;-69
2021/12/11 07:31:31;;;;;;;30.52;18.05;;;-0.90;99.90;;;;;;5091705;28;20028;-71
2021/12/11 07:33:57;;;;;;;24.15;15.80;;;-0.90;99.90;;;;;;5094424;28;20055;-69
2021/12/11 07:36:23;;;;;;;26.75;16.33;;;-0.90;99.90;;;;;;5094873;28;20089;-69
2021/12/11 07:38:49;;;;;;;25.13;16.63;;;-1.00;99.90;;;;;;5077001;28;20536;-68
2021/12/11 07:41:17;;;;;;;27.77;17.60;;;-1.00;99.90;;;;;;5074084;28;20116;-69
2021/12/11 07:43:45;;;;;;;31.27;18.85;;;-1.00;99.90;;;;;;5078122;28;20039;-69
2021/12/11 07:46:16;;;;;;;31.83;18.67;;;-1.10;99.90;;;;;;5079666;28;20362;-72
2021/12/11 07:48:43;;;;;;;28.20;18.02;;;-1.10;99.90;;;;;;5090621;28;20051;-72
2021/12/11 07:51:09;;;;;;;28.92;18.58;;;-1.10;99.90;;;;;;5093883;28;20373;-70
2021/12/11 07:53:35;;;;;;;31.38;17.75;;;-1.10;99.90;;;;;;5075605;28;20041;-70
2021/12/11 07:56:01;;;;;;;35.03;22.75;;;-1.10;99.90;;;;;;5073706;28;20040;-69
2021/12/11 07:58:29;;;;;;;28.90;19.35;;;-1.10;99.90;;;;;;5088271;28;20039;-70
2021/12/11 08:00:55;;;;;;;30.42;19.50;;;-1.00;99.90;;;;;;5093524;28;20447;-70
2021/12/11 08:03:21;;;;;;;33.10;21.63;;;-1.00;99.90;;;;;;5094102;28;20119;-69
2021/12/11 08:05:50;;;;;;;34.00;21.27;;;-1.00;99.90;;;;;;5079607;28;20108;-69
2021/12/11 08:08:16;;;;;;;31.10;20.27;;;-1.00;99.90;;;;;;5086931;28;20047;-72
2021/12/11 08:10:44;;;;;;;29.85;19.02;;;-1.00;99.90;;;;;;5093756;28;20035;-69
2021/12/11 08:13:11;;;;;;;28.60;18.50;;;-0.90;99.90;;;;;;5090349;28;20189;-70
2021/12/11 08:15:38;;;;;;;28.95;17.83;;;-0.90;99.90;;;;;;5073733;28;20040;-69
2021/12/11 08:18:06;;;;;;;28.67;17.92;;;-0.90;99.90;;;;;;5084511;28;20177;-73
2021/12/11 08:20:33;;;;;;;29.58;18.80;;;-0.80;99.90;;;;;;5093286;28;20052;-72
2021/12/11 08:23:00;;;;;;;33.22;20.23;;;-0.90;99.90;;;;;;5093622;28;20480;-71
2021/12/11 08:25:29;;;;;;;29.48;19.33;;;-0.80;99.90;;;;;;5093699;28;20050;-69
2021/12/11 08:27:57;;;;;;;30.75;19.38;;;-0.80;99.90;;;;;;5093639;28;20177;-72
2021/12/11 08:30:25;;;;;;;31.00;19.95;;;-0.70;99.90;;;;;;5093507;28;20040;-71
2021/12/11 08:32:51;;;;;;;31.90;19.75;;;-0.70;99.90;;;;;;5093710;28;20040;-69
2021/12/11 08:35:17;;;;;;;32.90;19.45;;;-0.60;99.90;;;;;;5076009;28;20362;-68
2021/12/11 08:37:46;;;;;;;29.23;19.05;;;-0.60;99.90;;;;;;5081644;28;20044;-71
2021/12/11 08:40:16;;;;;;;28.05;18.92;;;-0.50;99.90;;;;;;5093307;28;20072;-68
2021/12/11 08:42:42;;;;;;;26.85;18.13;;;-0.50;99.90;;;;;;5093557;28;20036;-70
2021/12/11 08:45:13;;;;;;;31.90;18.65;;;-0.40;99.90;;;;;;5093087;28;20036;-71
2021/12/11 08:47:41;;;;;;;28.75;18.63;;;-0.40;99.90;;;;;;5093470;28;20055;-70
2021/12/11 08:50:13;;;;;;;32.33;20.48;;;-0.40;99.90;;;;;;5093098;28;20044;-70
2021/12/11 08:52:42;;;;;;;31.55;20.75;;;-0.30;99.90;;;;;;5093849;28;20115;-70
2021/12/11 08:55:14;;;;;;;29.75;20.70;;;-0.30;99.90;;;;;;5093688;28;20074;-70
2021/12/11 08:57:41;;;;;;;33.22;20.98;;;-0.20;99.90;;;;;;5092903;28;20428;-70
2021/12/11 09:00:15;;;;;;;30.25;20.05;;;-0.20;99.90;;;;;;5074274;28;20052;-71
2021/12/11 09:02:49;;;;;;;36.53;20.77;;;-0.10;99.90;;;;;;5073129;28;20045;-70
2021/12/11 09:05:21;;;;;;;37.65;23.08;;;-0.10;99.90;;;;;;5072420;28;20041;-70
2021/12/11 09:07:51;;;;;;;48.80;23.17;;;-0.10;99.90;;;;;;5081406;28;20465;-71
2021/12/11 09:10:32;;;;;;;49.95;21.88;;;-0.10;99.90;;;;;;5092971;28;20130;-72
2021/12/11 09:13:20;;;;;;;91.28;23.27;;;-0.10;99.90;;;;;;5092592;28;20507;-72
2021/12/11 09:16:10;;;;;;;73.97;25.13;;;0.00;99.90;;;;;;5093247;28;20431;-70
2021/12/11 09:18:45;;;;;;;71.15;23.55;;;0.00;99.90;;;;;;5093136;28;20040;-71
2021/12/11 09:21:23;;;;;;;72.60;24.80;;;0.00;99.90;;;;;;5092698;28;20056;-70
2021/12/11 09:24:07;;;;;;;109.28;26.25;;;0.10;99.90;;;;;;5093454;28;20048;-72
2021/12/11 09:26:54;;;;;;;256.35;33.63;;;0.10;99.90;;;;;;5093443;28;20372;-71
2021/12/11 09:29:26;;;;;;;55.53;22.75;;;0.10;99.90;;;;;;5093391;28;20118;-72
2021/12/11 09:32:01;;;;;;;86.55;25.63;;;0.20;99.90;;;;;;5092051;28;20123;-71
2021/12/11 09:34:29;;;;;;;;;;;0.20;99.90;;;;;;5093869;28;20054;-71
2021/12/11 09:36:58;;;;;;;305.35;37.40;;;0.30;99.90;;;;;;5093192;28;20011;-71
2021/12/11 09:39:30;;;;;;;154.48;28.40;;;0.30;99.90;;;;;;5072770;28;20044;-70
2021/12/11 09:41:55;;;;;;;89.18;25.38;;;0.30;99.90;;;;;;5072862;28;20040;-71
2021/12/11 09:44:27;;;;;;;78.18;24.48;;;0.40;99.90;;;;;;5081829;28;20040;-70
2021/12/11 09:46:55;;;;;;;321.45;42.92;;;0.40;99.90;;;;;;5092900;28;20032;-70
2021/12/11 09:49:30;;;;;;;94.65;25.58;;;0.50;99.90;;;;;;5093139;28;20048;-71
2021/12/11 09:52:13;;;;;;;125.80;26.83;;;0.50;99.90;;;;;;5092967;28;20036;-71
2021/12/11 09:54:39;;;;;;;67.22;25.10;;;0.60;99.90;;;;;;5093011;28;20051;-70
2021/12/11 09:57:10;;;;;;;52.45;24.17;;;0.60;99.90;;;;;;5095418;28;20055;-70
2021/12/11 09:59:38;;;;;;;42.05;24.67;;;0.60;99.90;;;;;;5096396;28;20032;-71
2021/12/11 10:02:08;;;;;;;57.97;24.92;;;0.60;99.90;;;;;;5096366;28;20040;-71
2021/12/11 10:04:46;;;;;;;52.78;26.52;;;0.70;99.90;;;;;;5096291;28;20036;-71
2021/12/11 10:07:32;;;;;;;42.92;25.77;;;0.70;99.90;;;;;;5095197;28;20093;-72
2021/12/11 10:10:14;;;;;;;38.78;24.02;;;0.80;99.90;;;;;;5095991;28;20145;-72
2021/12/11 10:12:48;;;;;;;35.95;24.38;;;0.80;99.90;;;;;;5096612;28;20055;-72
2021/12/11 10:15:30;;;;;;;38.73;25.53;;;0.90;99.90;;;;;;5096665;28;20043;-73
2021/12/11 10:18:04;;;;;;;37.75;24.85;;;0.90;99.90;;;;;;5096202;28;20044;-73
2021/12/11 10:20:41;;;;;;;41.10;25.48;;;1.00;99.90;;;;;;5095328;28;20048;-74
2021/12/11 10:23:10;;;;;;;39.20;25.98;;;1.10;99.90;;;;;;5096361;28;20047;-72
2021/12/11 10:25:38;;;;;;;45.08;26.42;;;1.10;99.90;;;;;;5095929;28;20460;-73
2021/12/11 10:28:07;;;;;;;43.58;27.00;;;1.20;99.90;;;;;;5096165;28;20032;-73
2021/12/11 10:30:39;;;;;;;40.97;26.85;;;1.20;99.90;;;;;;5094314;28;20358;-72
2021/12/11 10:33:06;;;;;;;40.38;26.65;;;1.30;99.90;;;;;;5095824;28;20383;-71
2021/12/11 10:35:37;;;;;;;36.30;26.08;;;1.40;99.90;;;;;;5096112;28;20032;-73
2021/12/11 10:38:05;;;;;;;39.05;25.38;;;1.40;99.90;;;;;;5095894;28;20036;-73
2021/12/11 10:40:35;;;;;;;39.00;25.48;;;1.50;99.90;;;;;;5095353;28;20039;-74
2021/12/11 10:43:28;;;;;;;39.17;25.65;;;1.60;99.90;;;;;;5096195;28;20050;-73
2021/12/11 10:45:56;;;;;;;37.65;25.23;;;1.70;99.90;;;;;;5075344;28;20210;-74
2021/12/11 10:48:27;;;;;;;38.20;25.02;;;1.70;99.90;;;;;;5087850;28;20452;-74
2021/12/11 10:51:01;;;;;;;40.45;24.75;;;1.80;99.90;;;;;;5095549;28;20137;-74
2021/12/11 10:53:29;;;;;;;36.10;24.65;;;1.90;99.90;;;;;;5095749;28;20039;-74
2021/12/11 10:55:58;;;;;;;41.10;24.77;;;2.00;99.90;;;;;;5094282;28;20036;-74
2021/12/11 10:58:30;;;;;;;42.65;25.75;;;2.00;99.90;;;;;;5091273;28;20036;-74
2021/12/11 11:01:06;;;;;;;38.17;24.38;;;2.10;99.90;;;;;;5075113;28;20119;-74
2021/12/11 11:03:35;;;;;;;41.70;24.60;;;2.20;99.90;;;;;;5075183;28;20040;-74
2021/12/11 11:06:01;;;;;;;33.35;21.38;;;2.20;99.90;;;;;;5075091;28;20113;-74
2021/12/11 11:08:27;;;;;;;36.85;23.60;;;2.30;99.90;;;;;;5086920;28;20032;-73
2021/12/11 11:10:56;;;;;;;35.80;22.42;;;2.30;99.90;;;;;;5094721;28;20105;-74
2021/12/11 11:13:23;;;;;;;38.05;22.55;;;2.30;99.90;;;;;;5095241;28;20032;-72
2021/12/11 11:15:52;;;;;;;38.40;22.25;;;2.40;99.90;;;;;;5095044;28;20036;-73
2021/12/11 11:18:20;;;;;;;36.13;23.05;;;2.40;99.90;;;;;;5095013;28;20126;-75
2021/12/11 11:21:10;;;;;;;43.45;24.80;;;2.50;99.90;;;;;;5094308;28;20134;-74
2021/12/11 11:23:37;;;;;;;33.88;21.33;;;2.50;99.90;;;;;;5095081;28;20144;-74
2021/12/11 11:26:08;;;;;;;33.20;21.98;;;2.50;99.90;;;;;;5095176;28;20045;-74
2021/12/11 11:28:35;;;;;;;34.88;22.50;;;2.50;99.90;;;;;;5094452;28;20592;-75
2021/12/11 11:31:05;;;;;;;40.67;24.15;;;2.50;99.90;;;;;;5093254;28;20130;-73
2021/12/11 11:33:32;;;;;;;34.15;22.42;;;2.60;99.90;;;;;;5097001;28;20457;-75
2021/12/11 11:36:00;;;;;;;37.15;21.98;;;2.60;99.90;;;;;;5094880;28;20116;-74
2021/12/11 11:38:30;;;;;;;36.28;22.67;;;2.60;99.90;;;;;;5094580;28;20036;-73
2021/12/11 11:41:01;;;;;;;39.20;23.63;;;2.70;99.90;;;;;;5094017;28;20425;-73
2021/12/11 11:43:27;;;;;;;34.92;22.05;;;2.70;99.90;;;;;;5094561;28;20036;-75
2021/12/11 11:45:54;;;;;;;35.75;22.98;;;2.80;99.90;;;;;;5094691;28;20110;-74
2021/12/11 11:48:26;;;;;;;37.88;22.63;;;2.80;99.90;;;;;;5094267;28;20143;-74
2021/12/11 11:50:54;;;;;;;41.67;24.05;;;2.80;99.90;;;;;;5094018;28;20051;-74
2021/12/11 11:53:24;;;;;;;38.08;23.83;;;2.90;99.90;;;;;;5094609;28;20086;-74
2021/12/11 11:56:04;;;;;;;38.58;23.35;;;2.90;99.90;;;;;;5094157;28;20449;-74
2021/12/11 11:58:31;;;;;;;39.00;22.17;;;3.00;99.90;;;;;;5088924;28;20040;-74
2021/12/11 12:01:07;;;;;;;39.55;24.70;;;3.00;99.90;;;;;;5073606;28;20460;-74
2021/12/11 12:03:34;;;;;;;39.28;24.80;;;3.10;99.90;;;;;;5074220;28;20032;-75
2021/12/11 12:06:09;;;;;;;44.85;23.92;;;3.10;99.90;;;;;;5074285;28;20042;-73
2021/12/11 12:08:37;;;;;;;41.20;24.58;;;3.20;99.90;;;;;;5087498;28;20421;-74
2021/12/11 12:11:04;;;;;;;40.30;23.90;;;3.20;99.90;;;;;;5093939;28;20345;-73
2021/12/11 12:13:30;;;;;;;43.00;25.33;;;3.30;99.90;;;;;;5094203;28;20043;-76
2021/12/11 12:16:04;;;;;;;45.50;26.00;;;3.30;99.90;;;;;;5093168;28;20681;-75
2021/12/11 12:18:31;;;;;;;47.83;25.73;;;3.30;99.90;;;;;;5093882;28;20118;-74
2021/12/11 12:20:58;;;;;;;45.00;25.25;;;3.40;99.90;;;;;;5092361;28;20478;-73
2021/12/11 12:23:31;;;;;;;42.28;24.02;;;3.40;99.90;;;;;;5093978;28;20046;-74
2021/12/11 12:26:03;;;;;;;44.95;25.95;;;3.50;99.90;;;;;;5093999;28;20357;-74
2021/12/11 12:28:30;;;;;;;44.92;26.13;;;3.60;99.90;;;;;;5092185;28;20044;-75
2021/12/11 12:31:01;;;;;;;45.35;25.17;;;3.60;99.90;;;;;;5093079;28;20350;-74
2021/12/11 12:33:28;;;;;;;44.03;25.70;;;3.60;99.90;;;;;;5093486;28;20361;-74
2021/12/11 12:35:55;;;;;;;44.60;25.23;;;3.60;99.90;;;;;;5092893;28;20052;-74
2021/12/11 12:38:24;;;;;;;47.13;25.77;;;3.60;99.90;;;;;;5093280;28;20382;-75
2021/12/11 12:41:08;;;;;;;42.10;24.27;;;3.60;99.90;;;;;;5092921;28;20047;-74
2021/12/11 12:46:13;;;;;;;43.17;23.52;;;3.70;99.90;;;;;;5092294;28;20052;-74
2021/12/11 12:48:39;;;;;;;42.75;23.08;;;3.70;99.90;;;;;;5093402;28;20110;-73
2021/12/11 12:51:09;;;;;;;42.33;24.17;;;3.70;99.90;;;;;;5093434;28;20051;-74
2021/12/11 12:53:35;;;;;;;47.25;23.85;;;3.70;99.90;;;;;;5093672;28;20036;-74
2021/12/11 12:56:26;;;;;;;45.65;24.88;;;3.80;99.90;;;;;;5093624;28;20044;-72
2021/12/11 12:58:54;;;;;;;43.55;24.17;;;3.80;99.90;;;;;;5085538;28;20453;-74
2021/12/11 13:01:25;;;;;;;39.20;23.48;;;3.80;99.90;;;;;;5072585;28;20055;-74
2021/12/11 13:03:54;;;;;;;42.28;23.50;;;3.80;99.90;;;;;;5073131;28;20083;-73
2021/12/11 13:06:24;;;;;;;43.03;24.35;;;3.80;99.90;;;;;;5073238;28;20032;-73
2021/12/11 13:08:56;;;;;;;41.05;23.02;;;3.70;99.90;;;;;;5088242;28;20040;-73
2021/12/11 13:11:30;;;;;;;46.00;22.90;;;3.70;99.90;;;;;;5093262;28;20064;-76